createdAt,value
2023-01-07T00:00:54.498Z,80.45
2023-01-07T00:03:37.264Z,80.56
2023-01-07T00:06:28.511Z,79.80
2023-01-07T00:09:13.255Z,80.24
2023-01-07T00:12:08.117Z,80.05
2023-01-07T00:14:56.534Z,79.89
2023-01-07T00:17:38.251Z,80.17
2023-01-07T00:20:26.514Z,80.53
2023-01-07T00:23:08.697Z,80.54
2023-01-07T00:25:56.601Z,80.20
2023-01-07T00:28:39.277Z,80.83
2023-01-07T00:31:31.639Z,80.65
2023-01-07T00:34:15.244Z,80.81
2023-01-07T00:37:24.194Z,80.84
2023-01-07T00:40:13.138Z,80.53
2023-01-07T00:43:17.212Z,80.71
2023-01-07T00:46:06.242Z,80.25
2023-01-07T00:48:48.561Z,80.66
2023-01-07T00:51:38.292Z,80.94
2023-01-07T00:54:30.248Z,81.12
2023-01-07T00:57:21.109Z,81.20
2023-01-07T01:00:03.584Z,81.21
2023-01-07T01:02:52.283Z,81.31
2023-01-07T01:05:34.540Z,81.57
2023-01-07T01:08:23.122Z,81.69
2023-01-07T01:11:14.592Z,81.26
2023-01-07T01:14:03.273Z,80.90
2023-01-07T01:16:53.302Z,81.70
2023-01-07T01:19:41.631Z,81.16
2023-01-07T01:22:27.178Z,81.61
2023-01-07T01:25:10.248Z,80.90
2023-01-07T01:27:59.309Z,81.05
2023-01-07T01:30:41.440Z,81.31
2023-01-07T01:33:30.146Z,81.10
2023-01-07T01:36:20.609Z,81.40
2023-01-07T01:39:06.129Z,81.53
2023-01-07T01:41:55.954Z,81.52
2023-01-07T01:45:00.269Z,81.55
2023-01-07T01:48:00.249Z,82.30
2023-01-07T01:51:01.227Z,81.47
2023-01-07T01:53:43.884Z,81.21
2023-01-07T01:56:45.133Z,81.22
2023-01-07T01:59:39.244Z,81.54
2023-01-07T02:02:27.504Z,81.39
2023-01-07T02:05:16.254Z,81.47
2023-01-07T02:08:05.203Z,81.59
2023-01-07T02:11:10.177Z,81.86
2023-01-07T02:14:10.288Z,81.55
2023-01-07T02:17:07.469Z,82.08
2023-01-07T02:20:27.143Z,82.28
2023-01-07T02:23:16.232Z,81.89
2023-01-07T02:26:17.525Z,81.82
2023-01-07T02:29:30.127Z,81.98
2023-01-07T02:32:21.512Z,81.75
2023-01-07T02:35:18.222Z,81.14
2023-01-07T02:38:14.072Z,82.09
2023-01-07T02:41:28.073Z,81.69
2023-01-07T02:44:37.116Z,81.15
2023-01-07T02:47:28.136Z,81.36
2023-01-07T02:50:17.534Z,81.43
2023-01-07T02:52:59.194Z,81.52
2023-01-07T02:56:27.067Z,81.03
2023-01-07T02:59:51.055Z,81.65
2023-01-07T03:02:43.159Z,81.02
2023-01-07T03:06:08.595Z,80.82
2023-01-07T03:08:51.176Z,81.32
2023-01-07T03:11:52.527Z,81.28
2023-01-07T03:14:50.107Z,81.14
2023-01-07T03:17:55.475Z,80.80
2023-01-07T03:20:42.246Z,81.00
2023-01-07T03:23:27.874Z,80.47
2023-01-07T03:26:20.217Z,80.41
2023-01-07T03:29:06.286Z,80.88
2023-01-07T03:32:05.191Z,81.23
2023-01-07T03:34:54.557Z,80.46
2023-01-07T03:37:39.059Z,80.34
2023-01-07T03:40:29.168Z,80.42
2023-01-07T03:43:22.507Z,79.47
2023-01-07T03:46:07.392Z,79.29
2023-01-07T03:48:55.483Z,79.73
2023-01-07T03:51:39.280Z,80.09
2023-01-07T03:54:28.443Z,79.25
2023-01-07T03:57:11.169Z,78.34
2023-01-07T04:00:00.148Z,78.96
2023-01-07T04:02:57.198Z,79.16
2023-01-07T04:05:44.453Z,79.45
2023-01-07T04:08:34.254Z,78.96
2023-01-07T04:11:22.498Z,79.17
2023-01-07T04:14:08.133Z,79.10
2023-01-07T04:17:01.238Z,79.04
2023-01-07T04:19:43.519Z,79.02
2023-01-07T04:22:32.160Z,78.32
2023-01-07T04:25:23.195Z,77.89
2023-01-07T04:28:12.066Z,78.30
2023-01-07T04:31:01.273Z,78.64
2023-01-07T04:33:45.376Z,78.28
2023-01-07T04:36:35.185Z,78.07
2023-01-07T04:39:27.356Z,78.97
2023-01-07T04:42:15.571Z,78.19
2023-01-07T04:44:58.135Z,78.29
2023-01-07T04:47:47.171Z,77.41
2023-01-07T04:50:36.199Z,77.37
2023-01-07T04:53:24.419Z,77.04
2023-01-07T04:56:06.245Z,76.85
2023-01-07T04:58:55.191Z,77.60
2023-01-07T05:01:44.282Z,77.32
2023-01-07T05:04:26.392Z,77.75
2023-01-07T05:07:15.173Z,77.48
2023-01-07T05:09:57.355Z,77.29
2023-01-07T05:12:53.090Z,76.88
2023-01-07T05:15:42.107Z,77.94
2023-01-07T05:18:25.493Z,76.95
2023-01-07T05:21:14.219Z,76.26
2023-01-07T05:23:56.508Z,76.47
2023-01-07T05:26:45.245Z,74.45
2023-01-07T05:29:35.106Z,75.78
2023-01-07T05:32:24.139Z,75.29
2023-01-07T05:35:06.492Z,76.01
2023-01-07T05:37:56.123Z,75.22
2023-01-07T05:40:46.963Z,74.79
2023-01-07T05:43:40.495Z,75.68
2023-01-07T05:46:22.147Z,74.98
2023-01-07T05:49:11.511Z,74.96
2023-01-07T05:51:54.181Z,73.45
2023-01-07T05:54:36.500Z,73.08
2023-01-07T05:57:25.042Z,72.12
2023-01-07T06:00:08.086Z,72.89
2023-01-07T06:02:57.235Z,71.82
2023-01-07T06:05:45.598Z,71.72
2023-01-07T06:08:28.138Z,71.97
2023-01-07T06:11:10.443Z,70.89
2023-01-07T06:13:59.220Z,68.98
2023-01-07T06:16:49.637Z,68.76
2023-01-07T06:19:32.061Z,69.31
2023-01-07T06:22:21.319Z,69.47
2023-01-07T06:25:03.544Z,68.47
2023-01-07T06:27:52.136Z,68.48
2023-01-07T06:30:34.549Z,69.06
2023-01-07T06:33:25.051Z,68.05
2023-01-07T06:36:07.393Z,68.12
2023-01-07T06:38:56.080Z,66.93
2023-01-07T06:41:50.986Z,66.27
2023-01-07T06:44:40.080Z,66.90
2023-01-07T06:47:22.474Z,66.89
2023-01-07T06:50:11.102Z,65.45
2023-01-07T06:52:54.019Z,65.65
2023-01-07T06:55:43.217Z,65.27
2023-01-07T06:58:26.546Z,65.66
2023-01-07T07:01:16.264Z,65.08
2023-01-07T07:03:58.588Z,64.33
2023-01-07T07:06:47.227Z,64.17
2023-01-07T07:09:29.603Z,64.96
2023-01-07T07:12:19.225Z,62.80
2023-01-07T07:15:01.513Z,63.43
2023-01-07T07:17:50.284Z,62.73
2023-01-07T07:20:39.134Z,63.22
2023-01-07T07:23:21.444Z,63.87
2023-01-07T07:26:10.123Z,63.38
2023-01-07T07:28:58.458Z,63.26
2023-01-07T07:31:40.269Z,62.88
2023-01-07T07:34:29.180Z,63.03
2023-01-07T07:37:11.401Z,63.78
2023-01-07T07:40:00.248Z,63.48
2023-01-07T07:43:10.577Z,64.22
2023-01-07T07:45:51.167Z,63.66
2023-01-07T07:48:40.606Z,63.73
2023-01-07T07:51:22.219Z,62.92
2023-01-07T07:54:10.395Z,63.92
2023-01-07T07:56:52.124Z,63.75
2023-01-07T07:59:40.416Z,63.03
2023-01-07T08:02:23.253Z,64.21
2023-01-07T08:05:05.618Z,64.13
2023-01-07T08:07:54.218Z,63.81
2023-01-07T08:10:36.945Z,63.30
2023-01-07T08:13:27.088Z,63.02
2023-01-07T08:16:16.215Z,62.40
2023-01-07T08:19:05.157Z,63.21
2023-01-07T08:21:54.065Z,62.16
2023-01-07T08:24:37.092Z,61.56
2023-01-07T08:27:26.149Z,62.09
2023-01-07T08:30:15.043Z,61.58
2023-01-07T08:33:09.058Z,60.99
2023-01-07T08:35:52.541Z,61.90
2023-01-07T08:38:41.320Z,61.06
2023-01-07T08:41:37.959Z,61.00
2023-01-07T08:44:27.156Z,61.22
2023-01-07T08:47:09.560Z,61.71
2023-01-07T08:49:58.165Z,60.53
2023-01-07T08:52:42.004Z,60.73
2023-01-07T08:55:31.515Z,61.61
2023-01-07T08:58:13.510Z,62.24
2023-01-07T09:01:02.292Z,62.41
2023-01-07T09:03:44.607Z,62.71
2023-01-07T09:06:33.042Z,62.72
2023-01-07T09:09:17.618Z,63.46
2023-01-07T09:12:06.098Z,64.08
2023-01-07T09:14:48.424Z,63.87
2023-01-07T09:17:37.058Z,65.50
2023-01-07T09:20:19.589Z,64.59
2023-01-07T09:23:08.093Z,64.10
2023-01-07T09:25:50.488Z,64.22
2023-01-07T09:28:39.191Z,64.67
2023-01-07T09:31:21.423Z,65.19
2023-01-07T09:34:11.181Z,65.13
2023-01-07T09:36:53.456Z,65.26
2023-01-07T09:39:42.167Z,65.31
2023-01-07T09:42:39.443Z,64.65
2023-01-07T09:45:27.203Z,65.57
2023-01-07T09:48:24.957Z,65.62
2023-01-07T09:51:23.237Z,65.82
2023-01-07T09:54:22.968Z,65.69
2023-01-07T09:57:12.097Z,65.97
2023-01-07T09:59:54.325Z,65.81
2023-01-07T10:02:59.129Z,66.65
2023-01-07T10:06:02.707Z,67.22
2023-01-07T10:08:47.103Z,67.81
2023-01-07T10:12:08.100Z,67.65
2023-01-07T10:15:10.661Z,68.26
2023-01-07T10:18:10.463Z,68.40
2023-01-07T10:21:14.063Z,68.58
2023-01-07T10:24:11.142Z,69.23
2023-01-07T10:26:57.859Z,69.76
2023-01-07T10:30:03.050Z,69.64
2023-01-07T10:32:56.847Z,70.54
2023-01-07T10:35:45.292Z,71.44
2023-01-07T10:38:53.002Z,70.70
2023-01-07T10:42:29.033Z,71.38
2023-01-07T10:45:25.502Z,70.82
2023-01-07T10:48:41.133Z,70.47
2023-01-07T10:52:02.551Z,69.83
2023-01-07T10:55:13.124Z,69.75
2023-01-07T10:58:03.048Z,70.37
2023-01-07T11:00:55.489Z,70.47
2023-01-07T11:03:38.194Z,69.72
2023-01-07T11:06:27.364Z,70.43
2023-01-07T11:09:19.186Z,70.13
2023-01-07T11:12:06.667Z,70.48
2023-01-07T11:14:55.989Z,70.50
2023-01-07T11:17:57.121Z,71.19
2023-01-07T11:21:43.191Z,71.81
2023-01-07T11:24:35.595Z,71.11
2023-01-07T11:27:26.127Z,70.83
2023-01-07T11:30:28.123Z,71.08
2023-01-07T11:33:22.134Z,70.97
2023-01-07T11:36:05.604Z,70.69
2023-01-07T11:38:55.181Z,71.13
2023-01-07T11:41:50.030Z,71.22
2023-01-07T11:44:39.174Z,71.55
2023-01-07T11:47:25.392Z,71.97
2023-01-07T11:50:17.173Z,72.39
2023-01-07T11:53:09.447Z,72.10
2023-01-07T11:56:09.079Z,71.89
2023-01-07T11:58:54.626Z,72.46
2023-01-07T12:01:54.515Z,72.53
2023-01-07T12:04:42.409Z,72.82
2023-01-07T12:07:32.051Z,73.05
2023-01-07T12:10:33.465Z,73.41
2023-01-07T12:13:33.175Z,73.39
2023-01-07T12:16:23.046Z,72.99
2023-01-07T12:19:50.091Z,73.08
2023-01-07T12:22:58.444Z,72.00
2023-01-07T12:26:13.003Z,70.72
2023-01-07T12:29:23.135Z,71.67
2023-01-07T12:32:40.123Z,71.26
2023-01-07T12:35:32.108Z,71.44
2023-01-07T12:38:26.505Z,69.79
2023-01-07T12:41:28.071Z,70.44
2023-01-07T12:44:20.474Z,69.78
2023-01-07T12:47:32.077Z,70.76
2023-01-07T12:50:37.215Z,70.53
2023-01-07T12:53:33.074Z,70.35
2023-01-07T12:56:46.110Z,69.88
2023-01-07T12:59:52.597Z,71.18
2023-01-07T13:03:02.168Z,71.66
2023-01-07T13:06:06.961Z,71.88
2023-01-07T13:09:06.067Z,71.64
2023-01-07T13:12:40.537Z,72.57
2023-01-07T13:15:41.129Z,73.24
2023-01-07T13:18:25.684Z,73.52
2023-01-07T13:21:19.127Z,73.30
2023-01-07T13:24:13.556Z,72.91
2023-01-07T13:27:47.014Z,73.31
2023-01-07T13:31:11.148Z,73.53
2023-01-07T13:34:12.424Z,73.47
2023-01-07T13:37:08.169Z,73.71
2023-01-07T13:40:07.779Z,71.65
2023-01-07T13:43:07.234Z,72.65
2023-01-07T13:46:04.715Z,72.21
2023-01-07T13:48:56.152Z,72.10
2023-01-07T13:51:46.557Z,71.61
2023-01-07T13:55:01.003Z,72.61
2023-01-07T13:57:52.218Z,72.71
2023-01-07T14:00:53.558Z,73.03
2023-01-07T14:04:01.192Z,73.69
2023-01-07T14:06:58.546Z,74.47
2023-01-07T14:09:49.390Z,73.83
2023-01-07T14:13:03.554Z,71.81
2023-01-07T14:16:01.111Z,72.47
2023-01-07T14:18:52.922Z,73.10
2023-01-07T14:22:09.162Z,73.31
2023-01-07T14:24:57.555Z,72.54
2023-01-07T14:28:23.170Z,73.28
2023-01-07T14:31:06.383Z,74.59
2023-01-07T14:34:01.200Z,73.27
2023-01-07T14:37:10.045Z,74.45
2023-01-07T14:39:59.047Z,73.65
2023-01-07T14:42:52.784Z,73.99
2023-01-07T14:45:45.016Z,73.64
2023-01-07T14:48:41.469Z,74.20
2023-01-07T14:51:42.124Z,75.85
2023-01-07T14:54:39.107Z,75.42
2023-01-07T14:57:51.395Z,75.85
2023-01-07T15:01:13.283Z,76.03
2023-01-07T15:04:30.837Z,75.80
2023-01-07T15:07:25.143Z,76.00
2023-01-07T15:10:51.509Z,76.18
2023-01-07T15:13:52.108Z,74.74
2023-01-07T15:16:38.925Z,76.81
2023-01-07T15:19:22.657Z,77.31
2023-01-07T15:22:32.440Z,77.73
2023-01-07T15:25:52.112Z,76.61
2023-01-07T15:28:34.591Z,75.49
2023-01-07T15:31:38.054Z,75.26
2023-01-07T15:34:24.557Z,74.41
2023-01-07T15:37:13.995Z,75.90
2023-01-07T15:40:02.438Z,74.97
2023-01-07T15:42:52.954Z,75.90
2023-01-07T15:45:36.367Z,76.60
2023-01-07T15:48:25.107Z,74.89
2023-01-07T15:51:14.048Z,75.39
2023-01-07T15:53:57.179Z,77.18
2023-01-07T15:56:46.115Z,77.47
2023-01-07T15:59:32.242Z,75.83
2023-01-07T16:02:40.022Z,76.45
2023-01-07T16:05:29.520Z,76.97
2023-01-07T16:08:12.142Z,75.94
2023-01-07T16:11:11.396Z,76.07
2023-01-07T16:14:04.056Z,74.82
2023-01-07T16:16:46.547Z,74.44
2023-01-07T16:19:36.038Z,74.70
2023-01-07T16:22:29.378Z,75.31
2023-01-07T16:25:17.073Z,75.78
2023-01-07T16:28:06.676Z,76.28
2023-01-07T16:30:51.054Z,75.22
2023-01-07T16:33:41.315Z,74.98
2023-01-07T16:36:28.042Z,76.28
2023-01-07T16:39:37.096Z,76.58
2023-01-07T16:42:34.927Z,77.30
2023-01-07T16:45:36.022Z,77.66
2023-01-07T16:48:29.312Z,76.77
2023-01-07T16:51:44.096Z,76.60
2023-01-07T16:54:35.632Z,76.66
2023-01-07T16:57:24.207Z,76.60
2023-01-07T17:00:09.398Z,77.08
2023-01-07T17:03:06.983Z,78.07
2023-01-07T17:05:56.125Z,77.71
2023-01-07T17:08:38.442Z,77.05
2023-01-07T17:11:38.070Z,77.36
2023-01-07T17:14:38.035Z,76.05
2023-01-07T17:17:33.024Z,77.35
2023-01-07T17:20:25.561Z,76.91
2023-01-07T17:23:08.298Z,77.02
2023-01-07T17:25:57.535Z,75.82
2023-01-07T17:28:44.022Z,76.40
2023-01-07T17:31:26.594Z,76.46
2023-01-07T17:34:14.928Z,75.63
2023-01-07T17:37:05.107Z,75.75
2023-01-07T17:39:48.285Z,75.93
2023-01-07T17:43:06.995Z,75.82
2023-01-07T17:45:56.439Z,76.36
2023-01-07T17:48:38.966Z,76.70
2023-01-07T17:51:29.154Z,76.30
2023-01-07T17:54:11.363Z,75.39
2023-01-07T17:57:00.033Z,76.77
2023-01-07T17:59:48.279Z,76.89
2023-01-07T18:02:38.164Z,76.31
2023-01-07T18:05:28.663Z,77.86
2023-01-07T18:08:19.029Z,77.77
2023-01-07T18:11:21.113Z,78.53
2023-01-07T18:14:10.179Z,77.11
2023-01-07T18:16:53.662Z,76.60
2023-01-07T18:19:43.127Z,77.59
2023-01-07T18:22:26.781Z,77.76
2023-01-07T18:25:24.375Z,77.73
2023-01-07T18:28:06.890Z,78.75
2023-01-07T18:30:57.287Z,78.37
2023-01-07T18:33:39.789Z,78.00
2023-01-07T18:36:29.368Z,78.17
2023-01-07T18:39:13.663Z,78.72
2023-01-07T18:42:02.996Z,78.23
2023-01-07T18:44:58.264Z,77.97
2023-01-07T18:47:40.512Z,77.83
2023-01-07T18:50:32.239Z,78.55
2023-01-07T18:53:22.001Z,77.93
2023-01-07T18:56:12.960Z,77.50
2023-01-07T18:59:03.004Z,78.41
2023-01-07T19:01:52.091Z,77.76
2023-01-07T19:04:45.145Z,77.83
2023-01-07T19:07:28.509Z,78.23
2023-01-07T19:10:18.382Z,78.07
2023-01-07T19:13:01.607Z,78.40
2023-01-07T19:15:50.971Z,78.21
2023-01-07T19:18:40.299Z,77.96
2023-01-07T19:21:29.109Z,78.87
2023-01-07T19:24:11.837Z,79.73
2023-01-07T19:27:01.188Z,79.80
2023-01-07T19:29:44.350Z,80.55
2023-01-07T19:32:33.001Z,80.86
2023-01-07T19:35:16.919Z,80.78
2023-01-07T19:38:06.247Z,81.53
2023-01-07T19:41:01.059Z,81.15
2023-01-07T19:43:59.903Z,81.22
2023-01-07T19:46:50.212Z,81.22
2023-01-07T19:49:32.709Z,80.33
2023-01-07T19:52:21.938Z,80.26
2023-01-07T19:55:04.576Z,81.45
2023-01-07T19:57:54.145Z,81.00
2023-01-07T20:00:44.569Z,81.66
2023-01-07T20:03:33.037Z,81.32
2023-01-07T20:06:25.606Z,82.14
2023-01-07T20:09:19.158Z,81.95
2023-01-07T20:12:01.715Z,81.94
2023-01-07T20:14:53.043Z,81.91
2023-01-07T20:17:35.304Z,82.23
2023-01-07T20:20:24.115Z,82.06
2023-01-07T20:23:07.375Z,82.05
2023-01-07T20:25:56.089Z,82.20
2023-01-07T20:28:38.635Z,81.91
2023-01-07T20:31:30.406Z,81.45
2023-01-07T20:34:12.397Z,80.54
2023-01-07T20:37:01.970Z,81.42
2023-01-07T20:39:44.347Z,80.94
2023-01-07T20:42:33.100Z,81.07
2023-01-07T20:45:22.339Z,80.46
2023-01-07T20:48:06.011Z,81.02
2023-01-07T20:50:55.005Z,80.46
2023-01-07T20:53:37.332Z,81.12
2023-01-07T20:56:29.074Z,80.83
2023-01-07T20:59:13.515Z,80.92
2023-01-07T21:02:02.131Z,80.63
2023-01-07T21:04:44.312Z,81.03
2023-01-07T21:07:33.030Z,81.35
2023-01-07T21:10:15.363Z,82.24
2023-01-07T21:13:04.024Z,80.86
2023-01-07T21:15:52.887Z,80.12
2023-01-07T21:18:35.379Z,80.96
2023-01-07T21:21:27.011Z,80.49
2023-01-07T21:24:18.047Z,79.74
2023-01-07T21:26:59.928Z,78.05
2023-01-07T21:29:49.257Z,78.34
2023-01-07T21:32:30.972Z,78.21
2023-01-07T21:35:13.806Z,79.60
2023-01-07T21:38:03.072Z,80.54
2023-01-07T21:40:51.972Z,80.95
2023-01-07T21:43:46.865Z,80.22
2023-01-07T21:46:36.061Z,81.34
2023-01-07T21:49:20.166Z,81.64
2023-01-07T21:52:09.072Z,81.02
2023-01-07T21:54:52.983Z,81.74
2023-01-07T21:57:47.025Z,82.34
2023-01-07T22:00:29.285Z,82.25
2023-01-07T22:03:18.054Z,82.28
2023-01-07T22:06:36.024Z,80.89
2023-01-07T22:09:18.259Z,82.19
2023-01-07T22:12:06.915Z,81.63
2023-01-07T22:14:49.175Z,82.42
2023-01-07T22:17:38.067Z,82.30
2023-01-07T22:20:20.293Z,82.06
2023-01-07T22:23:08.994Z,81.94
2023-01-07T22:25:57.913Z,82.54
2023-01-07T22:28:48.035Z,82.03
2023-01-07T22:31:41.528Z,82.46
2023-01-07T22:34:23.852Z,81.91
2023-01-07T22:37:27.827Z,82.77
2023-01-07T22:40:14.041Z,82.52
2023-01-07T22:43:15.866Z,81.50
2023-01-07T22:46:11.057Z,81.42
2023-01-07T22:48:59.909Z,80.69
2023-01-07T22:51:54.911Z,80.67
2023-01-07T22:54:39.230Z,80.40
2023-01-07T22:57:29.715Z,80.70
2023-01-07T23:00:14.287Z,80.23
2023-01-07T23:03:03.019Z,80.53
2023-01-07T23:05:45.291Z,81.03
2023-01-07T23:08:34.046Z,81.52
2023-01-07T23:11:36.206Z,81.40
2023-01-07T23:14:27.941Z,80.79
2023-01-07T23:17:11.752Z,81.10
2023-01-07T23:20:00.862Z,81.06
2023-01-07T23:22:43.225Z,80.18
2023-01-07T23:25:31.985Z,80.54
2023-01-07T23:28:14.323Z,80.64
2023-01-07T23:31:02.861Z,80.87
2023-01-07T23:33:45.381Z,80.79
2023-01-07T23:36:34.045Z,81.44
2023-01-07T23:39:22.968Z,81.11
2023-01-07T23:42:11.916Z,82.31
2023-01-07T23:45:07.046Z,82.87
2023-01-07T23:47:55.967Z,82.81
2023-01-07T23:50:38.256Z,82.06
2023-01-07T23:53:27.032Z,82.12
2023-01-07T23:56:09.271Z,83.03
2023-01-07T23:58:57.987Z,81.63
